x

Fripp Nearshore (frp 2) (41033) Weather Station

4:08pm - Sun 19th Aug 2018 All times are EDT. -4 hours from GMT.

  • Wind
    16mph, 22mph gusts
  • Sea Temp 84°f
  • Air Temp 84°f
  • Sea Pressure 1015.2mb
  • Fripp Nearshore (frp 2)
  • Fripp Nearshore (frp 2)

More Historic Weather Station data

Upgrade to MSW Pro to gain access to the past 30 days of data for over 8000 Wavebouys and Weather Stations around the globe.

Join

Comparision Forecast

View Surf forecast
   
Sun 08/19 4:08pm 16 22 mph 1015.2mb 84f 84f
3:08pm 16 20 mph 1015.6mb 84f 83f
2:08pm 13 18 mph 1015.8mb 85f 83f
1:08pm 11 18 mph 1016.3mb 85f 83f
12:08pm 11 16 mph 1016.9mb 84f 83f
11:08am 11 18 mph 1017.1mb 84f 83f
10:08am 11 18 mph 1016.9mb 84f 82f
9:08am 13 20 mph 1016.9mb 84f 82f
8:08am 16 22 mph 1016.4mb 84f 82f
6:08am 16 20 mph 1015.2mb 83f 82f
5:08am 13 20 mph 1014.9mb 83f 82f
4:08am 13 18 mph 1014.9mb 83f 82f
3:08am 13 18 mph 1015.1mb 83f 82f
2:08am 13 20 mph 1015.3mb 83f 83f
1:08am 13 20 mph 1015.5mb 83f 83f
12:08am 18 25 mph 1015.8mb 84f 84f
Sat 08/18 11:08pm 18 25 mph 1016.1mb 84f 83f
10:08pm 18 27 mph 1016.2mb 84f 84f
9:08pm 20 25 mph 1015.7mb 84f 84f
8:08pm 18 22 mph 1015.4mb 85f 83f
7:08pm 18 25 mph 1014.6mb 85f 84f
6:08pm 16 22 mph 1015.2mb 84f 83f
5:08pm 16 22 mph 1015.4mb 84f 84f
4:08pm 18 22 mph 1015.9mb 84f 83f
3:08pm 18 22 mph 1016.8mb 84f 83f
2:08pm 16 20 mph 1017.3mb 85f 83f
1:08pm 11 16 mph 1018.5mb 85f 83f
12:08pm 11 16 mph 1019.2mb 85f 82f
11:08am 11 16 mph 1019.7mb 84f 82f
10:08am 11 16 mph 1020.1mb 84f 82f
9:08am 11 16 mph 1020.2mb 84f 82f
8:08am 13 18 mph 1020mb 84f 82f
7:08am 13 18 mph 1019.8mb 84f 82f
6:08am 16 20 mph 1019.3mb 84f 82f
5:08am 16 22 mph 1019.1mb 84f 82f
4:08am 13 18 mph 1019.2mb 84f 81f
3:08am 16 20 mph 1019.6mb 84f 82f
2:08am 13 18 mph 1020mb 84f 82f
1:08am 13 20 mph 1020.6mb 84f 82f
12:08am 13 20 mph 1020.7mb 84f 83f
Fri 08/17 11:08pm 16 22 mph 1020.5mb 85f 84f
10:08pm 16 25 mph 1020.8mb 85f 84f
9:08pm 18 25 mph 1020.5mb 85f 84f
8:08pm 18 25 mph 1020.1mb 85f 83f
7:08pm 16 22 mph 1019.4mb 85f 83f
6:08pm 16 22 mph 1019.5mb 85f 83f
5:08pm 13 20 mph 1019.5mb 85f 83f
4:08pm 13 18 mph 1020.2mb 85f 83f
3:08pm 13 18 mph 1020.8mb 85f 83f
2:08pm 13 18 mph 1021.4mb 85f 83f
1:08pm 11 13 mph 1021.9mb 85f 82f
12:08pm 9 13 mph 1022.3mb 85f 82f
11:08am 9 11 mph 1022.5mb 84f 82f
10:08am 9 13 mph 1022.4mb 84f 82f
9:08am 9 11 mph 1022.7mb 84f 81f
8:08am 11 18 mph 1022.8mb 84f 80f
7:08am 11 16 mph 1022.1mb 85f 83f
6:08am 9 13 mph 1021.2mb 84f 82f
5:08am 9 13 mph 1020.8mb 84f 82f
4:08am 13 18 mph 1021mb 85f 83f
3:08am 16 22 mph 1021.1mb 85f 83f
2:08am 16 20 mph 1021.3mb 84f 83f
1:08am 13 20 mph 1021.7mb 85f 83f
12:08am 16 22 mph 1021.9mb 85f 83f
Thu 08/16 11:08pm 16 25 mph 1021.9mb 85f 84f
10:08pm 13 22 mph 1021.8mb 85f 83f
9:08pm 16 22 mph 1021.2mb 85f 83f
8:08pm 13 20 mph 1020.7mb 85f 83f
7:08pm 13 20 mph 1020.4mb 86f 84f
6:08pm 13 20 mph 1020.3mb 86f 84f
5:08pm 13 18 mph 1020.3mb 86f 84f
4:08pm 11 18 mph 1020.4mb 85f 83f
3:08pm 11 18 mph 1021.2mb 85f 83f
2:08pm 11 16 mph 1021.7mb 85f 84f
1:08pm 9 13 mph 1021.8mb 85f 84f
12:08pm 7 11 mph 1022mb 85f 83f
11:08am 7 9 mph 1021.9mb 84f 83f
10:08am 7 9 mph 1021.3mb 84f 82f
9:08am 7 11 mph 1021mb 84f 83f
8:08am 11 16 mph 1020.9mb 84f 83f
7:08am 11 18 mph 1020.7mb 84f 83f
6:08am 11 16 mph 1020mb 85f 82f
5:08am 11 16 mph 1019.6mb 84f 82f
4:08am 11 16 mph 1019.4mb 84f 82f
3:08am 11 16 mph 1019.4mb 84f 82f
2:08am 11 16 mph 1019.3mb 84f 82f
1:08am 16 22 mph 1019.4mb 84f 82f
12:08am 13 18 mph 1019.6mb 85f 82f
Wed 08/15 11:08pm 11 20 mph 1019.2mb 85f 82f
10:08pm 13 18 mph 1019.2mb 85f 83f
9:08pm 16 22 mph 1018.7mb 85f 83f